sensor_id;sensor_type;location;lat;lon;timestamp;P1;durP1;ratioP1;P2;durP2;ratioP2
50651;SDS011;66928;52.086;5.240;2023-04-03T05:26:59;5.4;;;3.2;;
50651;SDS011;66928;52.086;5.240;2023-04-03T05:30:12;5.3;;;3.2;;
50651;SDS011;66928;52.086;5.240;2023-04-03T05:31:49;6.9;;;3.4;;
50651;SDS011;66928;52.086;5.240;2023-04-03T05:33:26;5.11;;;3.2;;
50651;SDS011;66928;52.086;5.240;2023-04-03T05:35:03;5.7;;;2.9;;
50651;SDS011;66928;52.086;5.240;2023-04-03T05:38:16;4.91;;;2.9;;
50651;SDS011;66928;52.086;5.240;2023-04-03T05:39:52;7.5;;;3.3;;
50651;SDS011;66928;52.086;5.240;2023-04-03T05:44:40;4.41;;;2.8;;
50651;SDS011;66928;52.086;5.240;2023-04-03T05:46:17;7.1;;;3.4;;
50651;SDS011;66928;52.086;5.240;2023-04-03T05:47:55;5.11;;;3.1;;
50651;SDS011;66928;52.086;5.240;2023-04-03T05:51:11;6.3;;;3.1;;
50651;SDS011;66928;52.086;5.240;2023-04-03T05:52:50;6.2;;;3.1;;
50651;SDS011;66928;52.086;5.240;2023-04-03T05:54:31;5.5;;;3.3;;
50651;SDS011;66928;52.086;5.240;2023-04-03T05:56:07;5.6;;;3.0;;
50651;SDS011;66928;52.086;5.240;2023-04-03T05:59:20;7.3;;;3.2;;
50651;SDS011;66928;52.086;5.240;2023-04-03T06:00:56;5.11;;;3.1;;
50651;SDS011;66928;52.086;5.240;2023-04-03T06:02:33;5.11;;;3.1;;
50651;SDS011;66928;52.086;5.240;2023-04-03T06:05:46;6.6;;;2.9;;
50651;SDS011;66928;52.086;5.240;2023-04-03T06:07:23;6.0;;;3.3;;
50651;SDS011;66928;52.086;5.240;2023-04-03T06:09:00;5.2;;;3.0;;
50651;SDS011;66928;52.086;5.240;2023-04-03T06:10:36;5.7;;;2.8;;
50651;SDS011;66928;52.086;5.240;2023-04-03T06:13:49;5.4;;;3.3;;
50651;SDS011;66928;52.086;5.240;2023-04-03T06:15:26;6.8;;;3.2;;
50651;SDS011;66928;52.086;5.240;2023-04-03T06:17:02;5.6;;;3.0;;
50651;SDS011;66928;52.086;5.240;2023-04-03T06:25:13;5.5;;;2.6;;
50651;SDS011;66928;52.086;5.240;2023-04-03T06:28:26;4.41;;;3.1;;
50651;SDS011;66928;52.086;5.240;2023-04-03T06:30:01;5.8;;;3.3;;
50651;SDS011;66928;52.086;5.240;2023-04-03T06:31:38;5.7;;;3.1;;
50651;SDS011;66928;52.086;5.240;2023-04-03T06:34:50;6.3;;;2.7;;
50651;SDS011;66928;52.086;5.240;2023-04-03T06:36:26;5.6;;;2.8;;
50651;SDS011;66928;52.086;5.240;2023-04-03T06:38:02;6.1;;;2.8;;
50651;SDS011;66928;52.086;5.240;2023-04-03T06:41:15;7.2;;;3.0;;
50651;SDS011;66928;52.086;5.240;2023-04-03T06:42:52;5.7;;;3.0;;
50651;SDS011;66928;52.086;5.240;2023-04-03T06:44:28;6.0;;;3.0;;
50651;SDS011;66928;52.086;5.240;2023-04-03T06:47:40;6.3;;;2.9;;
50651;SDS011;66928;52.086;5.240;2023-04-03T06:49:16;5.8;;;2.9;;
50651;SDS011;66928;52.086;5.240;2023-04-03T06:50:52;5.4;;;2.8;;
50651;SDS011;66928;52.086;5.240;2023-04-03T06:52:29;5.3;;;2.8;;
50651;SDS011;66928;52.086;5.240;2023-04-03T06:55:42;6.0;;;2.8;;
50651;SDS011;66928;52.086;5.240;2023-04-03T06:57:18;6.5;;;2.9;;
50651;SDS011;66928;52.086;5.240;2023-04-03T06:58:55;6.4;;;3.0;;
50651;SDS011;66928;52.086;5.240;2023-04-03T07:02:08;6.0;;;3.0;;
50651;SDS011;66928;52.086;5.240;2023-04-03T07:03:47;6.3;;;2.8;;
50651;SDS011;66928;52.086;5.240;2023-04-03T07:05:24;4.7;;;2.9;;
50651;SDS011;66928;52.086;5.240;2023-04-03T07:07:01;5.11;;;2.8;;
50651;SDS011;66928;52.086;5.240;2023-04-03T07:10:14;6.1;;;2.8;;
50651;SDS011;66928;52.086;5.240;2023-04-03T07:11:50;6.6;;;3.1;;
50651;SDS011;66928;52.086;5.240;2023-04-03T07:13:27;5.7;;;2.7;;
50651;SDS011;66928;52.086;5.240;2023-04-03T07:16:40;6.7;;;2.7;;
50651;SDS011;66928;52.086;5.240;2023-04-03T07:18:16;6.7;;;2.9;;
50651;SDS011;66928;52.086;5.240;2023-04-03T07:19:53;7.6;;;2.7;;
50651;SDS011;66928;52.086;5.240;2023-04-03T07:23:05;6.2;;;2.7;;
50651;SDS011;66928;52.086;5.240;2023-04-03T07:24:41;6.0;;;2.7;;
50651;SDS011;66928;52.086;5.240;2023-04-03T07:26:18;6.6;;;2.9;;
50651;SDS011;66928;52.086;5.240;2023-04-03T07:29:31;7.0;;;2.7;;
50651;SDS011;66928;52.086;5.240;2023-04-03T07:31:08;5.2;;;2.7;;
50651;SDS011;66928;52.086;5.240;2023-04-03T07:32:47;5.2;;;2.8;;
50651;SDS011;66928;52.086;5.240;2023-04-03T07:34:23;7.4;;;3.0;;
50651;SDS011;66928;52.086;5.240;2023-04-03T07:37:36;5.11;;;2.8;;
50651;SDS011;66928;52.086;5.240;2023-04-03T07:39:13;7.3;;;3.0;;
50651;SDS011;66928;52.086;5.240;2023-04-03T07:40:49;4.91;;;2.6;;
50651;SDS011;66928;52.086;5.240;2023-04-03T07:44:02;5.9;;;2.7;;
50651;SDS011;66928;52.086;5.240;2023-04-03T07:45:40;5.5;;;2.6;;
50651;SDS011;66928;52.086;5.240;2023-04-03T07:47:18;5.4;;;2.8;;
50651;SDS011;66928;52.086;5.240;2023-04-03T07:48:55;5.3;;;2.7;;
50651;SDS011;66928;52.086;5.240;2023-04-03T07:52:07;6.3;;;2.9;;
50651;SDS011;66928;52.086;5.240;2023-04-03T07:53:43;6.4;;;2.8;;
50651;SDS011;66928;52.086;5.240;2023-04-03T07:55:19;7.2;;;2.9;;
50651;SDS011;66928;52.086;5.240;2023-04-03T07:58:31;6.4;;;2.8;;
50651;SDS011;66928;52.086;5.240;2023-04-03T08:00:08;5.6;;;2.5;;
50651;SDS011;66928;52.086;5.240;2023-04-03T08:01:44;5.9;;;2.5;;
50651;SDS011;66928;52.086;5.240;2023-04-03T08:04:57;5.2;;;2.6;;
50651;SDS011;66928;52.086;5.240;2023-04-03T08:06:33;4.61;;;2.4;;
50651;SDS011;66928;52.086;5.240;2023-04-03T08:08:09;4.41;;;2.5;;
50651;SDS011;66928;52.086;5.240;2023-04-03T08:09:47;6.4;;;2.6;;
50651;SDS011;66928;52.086;5.240;2023-04-03T08:12:59;4.1;;;2.4;;
50651;SDS011;66928;52.086;5.240;2023-04-03T08:14:36;4.3;;;2.21;;
50651;SDS011;66928;52.086;5.240;2023-04-03T08:16:15;3.7;;;2.31;;
50651;SDS011;66928;52.086;5.240;2023-04-03T08:19:30;4.8;;;2.21;;
50651;SDS011;66928;52.086;5.240;2023-04-03T08:21:07;5.6;;;2.5;;
50651;SDS011;66928;52.086;5.240;2023-04-03T08:22:44;4.3;;;2.4;;
50651;SDS011;66928;52.086;5.240;2023-04-03T08:25:56;4.5;;;2.31;;
50651;SDS011;66928;52.086;5.240;2023-04-03T08:27:32;3.9;;;2.31;;
50651;SDS011;66928;52.086;5.240;2023-04-03T08:29:09;4.1;;;2.4;;
50651;SDS011;66928;52.086;5.240;2023-04-03T08:30:46;3.7;;;2.1;;
50651;SDS011;66928;52.086;5.240;2023-04-03T08:33:58;4.61;;;2.4;;
50651;SDS011;66928;52.086;5.240;2023-04-03T08:35:37;5.2;;;2.4;;
50651;SDS011;66928;52.086;5.240;2023-04-03T08:37:14;4.1;;;1.9;;
50651;SDS011;66928;52.086;5.240;2023-04-03T08:40:28;5.9;;;2.31;;
50651;SDS011;66928;52.086;5.240;2023-04-03T08:42:05;5.6;;;2.4;;
50651;SDS011;66928;52.086;5.240;2023-04-03T08:43:56;3.6;;;2.0;;
50651;SDS011;66928;52.086;5.240;2023-04-03T08:45:42;4.0;;;2.4;;
50651;SDS011;66928;52.086;5.240;2023-04-03T08:49:04;3.0;;;1.8;;
50651;SDS011;66928;52.086;5.240;2023-04-03T08:50:50;5.6;;;2.21;;
50651;SDS011;66928;52.086;5.240;2023-04-03T08:52:32;2.5;;;2.0;;
50651;SDS011;66928;52.086;5.240;2023-04-03T08:54:14;3.6;;;1.9;;
50651;SDS011;66928;52.086;5.240;2023-04-03T08:56:02;4.0;;;2.0;;
50651;SDS011;66928;52.086;5.240;2023-04-03T08:59:24;4.3;;;1.8;;
50651;SDS011;66928;52.086;5.240;2023-04-03T09:01:05;2.7;;;1.6;;
50651;SDS011;66928;52.086;5.240;2023-04-03T09:02:52;3.6;;;1.7;;
50651;SDS011;66928;52.086;5.240;2023-04-03T09:04:31;3.1;;;1.7;;
50651;SDS011;66928;52.086;5.240;2023-04-03T09:07:53;3.3;;;1.5;;
50651;SDS011;66928;52.086;5.240;2023-04-03T09:09:36;3.1;;;1.7;;
50651;SDS011;66928;52.086;5.240;2023-04-03T09:11:19;2.7;;;1.6;;
50651;SDS011;66928;52.086;5.240;2023-04-03T09:13:01;2.6;;;1.7;;
50651;SDS011;66928;52.086;5.240;2023-04-03T09:14:46;2.5;;;1.5;;
50651;SDS011;66928;52.086;5.240;2023-04-03T09:18:24;2.8;;;1.6;;
50651;SDS011;66928;52.086;5.240;2023-04-03T09:20:10;2.21;;;1.4;;
50651;SDS011;66928;52.086;5.240;2023-04-03T09:21:56;3.5;;;1.5;;
50651;SDS011;66928;52.086;5.240;2023-04-03T09:23:34;2.4;;;1.3;;
50651;SDS011;66928;52.086;5.240;2023-04-03T09:25:18;2.6;;;1.4;;
50651;SDS011;66928;52.086;5.240;2023-04-03T09:28:40;1.4;;;1.2;;
50651;SDS011;66928;52.086;5.240;2023-04-03T09:30:19;3.4;;;1.4;;
50651;SDS011;66928;52.086;5.240;2023-04-03T09:31:58;2.1;;;1.3;;
50651;SDS011;66928;52.086;5.240;2023-04-03T09:33:36;2.21;;;1.5;;
50651;SDS011;66928;52.086;5.240;2023-04-03T09:36:57;1.9;;;1.4;;
50651;SDS011;66928;52.086;5.240;2023-04-03T09:38:34;2.0;;;1.11;;
50651;SDS011;66928;52.086;5.240;2023-04-03T09:40:28;3.3;;;1.8;;
50651;SDS011;66928;52.086;5.240;2023-04-03T09:42:21;1.8;;;1.2;;
50651;SDS011;66928;52.086;5.240;2023-04-03T09:43:59;2.1;;;1.2;;
50651;SDS011;66928;52.086;5.240;2023-04-03T09:47:18;1.4;;;1.3;;
50651;SDS011;66928;52.086;5.240;2023-04-03T09:49:01;1.3;;;1.11;;
50651;SDS011;66928;52.086;5.240;2023-04-03T09:50:52;1.9;;;1.2;;
50651;SDS011;66928;52.086;5.240;2023-04-03T09:52:33;2.31;;;1.2;;
50651;SDS011;66928;52.086;5.240;2023-04-03T09:56:18;2.21;;;1.4;;
50651;SDS011;66928;52.086;5.240;2023-04-03T09:57:59;1.6;;;1.4;;
50651;SDS011;66928;52.086;5.240;2023-04-03T09:59:40;1.4;;;1.11;;
50651;SDS011;66928;52.086;5.240;2023-04-03T10:01:20;2.5;;;1.4;;
50651;SDS011;66928;52.086;5.240;2023-04-03T10:03:03;1.4;;;1.2;;
50651;SDS011;66928;52.086;5.240;2023-04-03T10:06:21;1.9;;;1.11;;
50651;SDS011;66928;52.086;5.240;2023-04-03T10:08:07;2.5;;;1.2;;
50651;SDS011;66928;52.086;5.240;2023-04-03T10:11:38;2.4;;;1.3;;
50651;SDS011;66928;52.086;5.240;2023-04-03T10:13:34;1.8;;;1.11;;
50651;SDS011;66928;52.086;5.240;2023-04-03T10:16:50;1.0;;;1.0;;
50651;SDS011;66928;52.086;5.240;2023-04-03T10:18:37;3.1;;;1.11;;
50651;SDS011;66928;52.086;5.240;2023-04-03T10:20:27;2.5;;;1.11;;
50651;SDS011;66928;52.086;5.240;2023-04-03T10:22:13;1.2;;;1.0;;
50651;SDS011;66928;52.086;5.240;2023-04-03T10:23:57;2.1;;;1.11;;
50651;SDS011;66928;52.086;5.240;2023-04-03T10:27:33;2.0;;;0.9;;
50651;SDS011;66928;52.086;5.240;2023-04-03T10:29:21;1.8;;;1.0;;
50651;SDS011;66928;52.086;5.240;2023-04-03T10:31:15;1.8;;;1.11;;
50651;SDS011;66928;52.086;5.240;2023-04-03T10:33:01;1.4;;;1.0;;
50651;SDS011;66928;52.086;5.240;2023-04-03T10:34:53;1.0;;;0.9;;
50651;SDS011;66928;52.086;5.240;2023-04-03T10:36:38;1.5;;;1.11;;
50651;SDS011;66928;52.086;5.240;2023-04-03T10:38:23;1.4;;;0.8;;
50651;SDS011;66928;52.086;5.240;2023-04-03T10:42:05;1.2;;;1.0;;
50651;SDS011;66928;52.086;5.240;2023-04-03T10:43:54;0.9;;;0.9;;
50651;SDS011;66928;52.086;5.240;2023-04-03T10:45:47;2.5;;;0.8;;
50651;SDS011;66928;52.086;5.240;2023-04-03T10:47:34;1.3;;;0.7;;
50651;SDS011;66928;52.086;5.240;2023-04-03T10:49:24;2.4;;;1.0;;
50651;SDS011;66928;52.086;5.240;2023-04-03T10:51:13;0.8;;;0.7;;
50651;SDS011;66928;52.086;5.240;2023-04-03T10:53:01;0.9;;;0.6;;
50651;SDS011;66928;52.086;5.240;2023-04-03T10:56:31;1.11;;;0.8;;
50651;SDS011;66928;52.086;5.240;2023-04-03T10:58:16;1.7;;;1.0;;
50651;SDS011;66928;52.086;5.240;2023-04-03T11:00:01;1.2;;;0.9;;
50651;SDS011;66928;52.086;5.240;2023-04-03T11:01:41;0.8;;;0.8;;
50651;SDS011;66928;52.086;5.240;2023-04-03T11:05:06;1.2;;;0.8;;
50651;SDS011;66928;52.086;5.240;2023-04-03T11:06:56;1.2;;;0.8;;
50651;SDS011;66928;52.086;5.240;2023-04-03T11:08:38;0.9;;;0.9;;
50651;SDS011;66928;52.086;5.240;2023-04-03T11:10:21;1.0;;;0.9;;
50651;SDS011;66928;52.086;5.240;2023-04-03T11:12:02;0.8;;;0.8;;
50651;SDS011;66928;52.086;5.240;2023-04-03T11:15:30;1.5;;;0.9;;
50651;SDS011;66928;52.086;5.240;2023-04-03T11:17:11;1.5;;;1.0;;
50651;SDS011;66928;52.086;5.240;2023-04-03T11:19:01;2.1;;;0.9;;
50651;SDS011;66928;52.086;5.240;2023-04-03T11:20:46;1.3;;;1.0;;
50651;SDS011;66928;52.086;5.240;2023-04-03T11:22:37;1.8;;;1.11;;
50651;SDS011;66928;52.086;5.240;2023-04-03T11:26:06;2.31;;;1.11;;
50651;SDS011;66928;52.086;5.240;2023-04-03T11:27:48;1.5;;;0.9;;
50651;SDS011;66928;52.086;5.240;2023-04-03T11:29:31;1.8;;;1.11;;
50651;SDS011;66928;52.086;5.240;2023-04-03T11:31:22;1.3;;;1.2;;
50651;SDS011;66928;52.086;5.240;2023-04-03T11:33:15;1.0;;;1.0;;
50651;SDS011;66928;52.086;5.240;2023-04-03T11:35:12;1.4;;;1.0;;
50651;SDS011;66928;52.086;5.240;2023-04-03T11:38:31;1.4;;;1.11;;
50651;SDS011;66928;52.086;5.240;2023-04-03T11:40:18;1.7;;;1.11;;
50651;SDS011;66928;52.086;5.240;2023-04-03T11:42:17;1.4;;;1.11;;
50651;SDS011;66928;52.086;5.240;2023-04-03T11:44:05;2.21;;;1.11;;
50651;SDS011;66928;52.086;5.240;2023-04-03T11:46:09;2.5;;;1.2;;
50651;SDS011;66928;52.086;5.240;2023-04-03T11:47:46;1.8;;;1.2;;
50651;SDS011;66928;52.086;5.240;2023-04-03T11:51:39;2.0;;;1.3;;
50651;SDS011;66928;52.086;5.240;2023-04-03T11:55:41;3.8;;;1.4;;
50651;SDS011;66928;52.086;5.240;2023-04-03T11:58:13;1.3;;;1.2;;
50651;SDS011;66928;52.086;5.240;2023-04-03T12:01:43;2.1;;;1.2;;
50651;SDS011;66928;52.086;5.240;2023-04-03T12:04:09;1.5;;;1.11;;
50651;SDS011;66928;52.086;5.240;2023-04-03T12:06:42;2.1;;;1.3;;
50651;SDS011;66928;52.086;5.240;2023-04-03T12:08:46;3.3;;;1.4;;
50651;SDS011;66928;52.086;5.240;2023-04-03T12:10:26;2.1;;;1.4;;
50651;SDS011;66928;52.086;5.240;2023-04-03T12:14:05;1.9;;;1.3;;
50651;SDS011;66928;52.086;5.240;2023-04-03T12:15:51;2.5;;;1.4;;
50651;SDS011;66928;52.086;5.240;2023-04-03T12:17:29;1.9;;;1.11;;
50651;SDS011;66928;52.086;5.240;2023-04-03T12:19:24;2.1;;;1.2;;
50651;SDS011;66928;52.086;5.240;2023-04-03T12:21:10;2.6;;;1.4;;
50651;SDS011;66928;52.086;5.240;2023-04-03T12:24:44;2.1;;;1.4;;
50651;SDS011;66928;52.086;5.240;2023-04-03T12:26:23;2.6;;;1.3;;
50651;SDS011;66928;52.086;5.240;2023-04-03T12:28:04;1.9;;;1.3;;
50651;SDS011;66928;52.086;5.240;2023-04-03T12:29:43;1.4;;;1.11;;
50651;SDS011;66928;52.086;5.240;2023-04-03T12:31:31;1.7;;;1.2;;
50651;SDS011;66928;52.086;5.240;2023-04-03T12:35:18;2.21;;;1.4;;
50651;SDS011;66928;52.086;5.240;2023-04-03T12:37:01;2.7;;;1.5;;
50651;SDS011;66928;52.086;5.240;2023-04-03T12:38:52;3.3;;;1.3;;
50651;SDS011;66928;52.086;5.240;2023-04-03T12:40:42;2.5;;;1.4;;
50651;SDS011;66928;52.086;5.240;2023-04-03T12:42:32;1.9;;;1.4;;
50651;SDS011;66928;52.086;5.240;2023-04-03T12:44:24;3.9;;;1.3;;
50651;SDS011;66928;52.086;5.240;2023-04-03T12:46:17;2.1;;;1.4;;
50651;SDS011;66928;52.086;5.240;2023-04-03T12:49:35;2.6;;;1.4;;
50651;SDS011;66928;52.086;5.240;2023-04-03T12:51:14;3.6;;;1.6;;
50651;SDS011;66928;52.086;5.240;2023-04-03T12:52:56;2.8;;;1.6;;
50651;SDS011;66928;52.086;5.240;2023-04-03T12:54:36;1.7;;;1.5;;
50651;SDS011;66928;52.086;5.240;2023-04-03T12:57:57;2.4;;;1.4;;
50651;SDS011;66928;52.086;5.240;2023-04-03T12:59:49;2.31;;;1.3;;
50651;SDS011;66928;52.086;5.240;2023-04-03T13:01:26;1.9;;;1.3;;
50651;SDS011;66928;52.086;5.240;2023-04-03T13:03:02;2.4;;;1.6;;
50651;SDS011;66928;52.086;5.240;2023-04-03T13:06:17;3.4;;;1.5;;
50651;SDS011;66928;52.086;5.240;2023-04-03T13:07:58;3.4;;;1.5;;
50651;SDS011;66928;52.086;5.240;2023-04-03T13:09:37;2.8;;;1.4;;
50651;SDS011;66928;52.086;5.240;2023-04-03T13:11:13;2.7;;;1.4;;
50651;SDS011;66928;52.086;5.240;2023-04-03T13:14:29;2.21;;;1.4;;
50651;SDS011;66928;52.086;5.240;2023-04-03T13:16:08;2.21;;;1.3;;
50651;SDS011;66928;52.086;5.240;2023-04-03T13:17:45;2.31;;;1.4;;
50651;SDS011;66928;52.086;5.240;2023-04-03T13:21:02;3.2;;;1.4;;
50651;SDS011;66928;52.086;5.240;2023-04-03T13:22:44;4.3;;;1.3;;
50651;SDS011;66928;52.086;5.240;2023-04-03T13:24:25;1.7;;;1.3;;
50651;SDS011;66928;52.086;5.240;2023-04-03T13:26:03;3.0;;;1.4;;
50651;SDS011;66928;52.086;5.240;2023-04-03T13:29:22;3.8;;;1.5;;
50651;SDS011;66928;52.086;5.240;2023-04-03T13:31:03;2.7;;;1.5;;
50651;SDS011;66928;52.086;5.240;2023-04-03T13:32:44;2.31;;;1.3;;
50651;SDS011;66928;52.086;5.240;2023-04-03T13:34:20;2.1;;;1.4;;
50651;SDS011;66928;52.086;5.240;2023-04-03T13:37:39;2.5;;;1.5;;
50651;SDS011;66928;52.086;5.240;2023-04-03T13:39:32;2.31;;;1.5;;
50651;SDS011;66928;52.086;5.240;2023-04-03T13:41:22;3.5;;;1.4;;
50651;SDS011;66928;52.086;5.240;2023-04-03T13:43:03;3.1;;;1.6;;
50651;SDS011;66928;52.086;5.240;2023-04-03T13:44:49;3.3;;;1.6;;
50651;SDS011;66928;52.086;5.240;2023-04-03T13:46:59;2.31;;;1.5;;
50651;SDS011;66928;52.086;5.240;2023-04-03T13:48:50;2.8;;;1.6;;
50651;SDS011;66928;52.086;5.240;2023-04-03T13:52:20;3.2;;;1.6;;
50651;SDS011;66928;52.086;5.240;2023-04-03T13:54:10;2.4;;;1.5;;
50651;SDS011;66928;52.086;5.240;2023-04-03T13:55:55;2.6;;;1.5;;
50651;SDS011;66928;52.086;5.240;2023-04-03T13:57:48;3.2;;;1.7;;
50651;SDS011;66928;52.086;5.240;2023-04-03T13:59:28;2.6;;;1.6;;
50651;SDS011;66928;52.086;5.240;2023-04-03T14:02:53;2.7;;;1.5;;
50651;SDS011;66928;52.086;5.240;2023-04-03T14:04:33;2.6;;;1.5;;
50651;SDS011;66928;52.086;5.240;2023-04-03T14:06:22;4.61;;;1.7;;
50651;SDS011;66928;52.086;5.240;2023-04-03T14:07:59;3.2;;;1.6;;
50651;SDS011;66928;52.086;5.240;2023-04-03T14:09:35;3.2;;;1.7;;
50651;SDS011;66928;52.086;5.240;2023-04-03T14:12:52;3.0;;;1.5;;
50651;SDS011;66928;52.086;5.240;2023-04-03T14:14:29;3.3;;;1.8;;
50651;SDS011;66928;52.086;5.240;2023-04-03T14:16:07;4.7;;;1.7;;
50651;SDS011;66928;52.086;5.240;2023-04-03T14:19:27;3.4;;;1.8;;
50651;SDS011;66928;52.086;5.240;2023-04-03T14:21:04;2.21;;;1.7;;
50651;SDS011;66928;52.086;5.240;2023-04-03T14:22:41;2.9;;;1.7;;
50651;SDS011;66928;52.086;5.240;2023-04-03T14:24:17;2.6;;;1.6;;
50651;SDS011;66928;52.086;5.240;2023-04-03T14:27:30;1.9;;;1.6;;
50651;SDS011;66928;52.086;5.240;2023-04-03T14:29:11;2.6;;;1.6;;
50651;SDS011;66928;52.086;5.240;2023-04-03T14:30:49;2.7;;;1.6;;
50651;SDS011;66928;52.086;5.240;2023-04-03T14:34:03;2.8;;;1.6;;
50651;SDS011;66928;52.086;5.240;2023-04-03T14:35:41;3.9;;;1.8;;
50651;SDS011;66928;52.086;5.240;2023-04-03T14:37:18;2.5;;;1.6;;
50651;SDS011;66928;52.086;5.240;2023-04-03T14:38:56;2.31;;;1.6;;
50651;SDS011;66928;52.086;5.240;2023-04-03T14:42:12;3.5;;;1.7;;
50651;SDS011;66928;52.086;5.240;2023-04-03T14:43:54;2.4;;;1.6;;
50651;SDS011;66928;52.086;5.240;2023-04-03T14:45:32;2.5;;;1.7;;
50651;SDS011;66928;52.086;5.240;2023-04-03T14:48:47;3.2;;;1.7;;
50651;SDS011;66928;52.086;5.240;2023-04-03T14:50:25;2.6;;;1.7;;
50651;SDS011;66928;52.086;5.240;2023-04-03T14:52:02;4.91;;;1.7;;
50651;SDS011;66928;52.086;5.240;2023-04-03T14:53:40;3.5;;;1.9;;
50651;SDS011;66928;52.086;5.240;2023-04-03T14:56:58;3.6;;;1.9;;
50651;SDS011;66928;52.086;5.240;2023-04-03T14:58:36;2.9;;;1.7;;
50651;SDS011;66928;52.086;5.240;2023-04-03T15:00:13;3.1;;;1.7;;
50651;SDS011;66928;52.086;5.240;2023-04-03T15:03:28;2.4;;;1.9;;
50651;SDS011;66928;52.086;5.240;2023-04-03T15:05:06;2.7;;;1.9;;
50651;SDS011;66928;52.086;5.240;2023-04-03T15:06:44;2.8;;;1.8;;
50651;SDS011;66928;52.086;5.240;2023-04-03T15:08:21;3.2;;;1.8;;
50651;SDS011;66928;52.086;5.240;2023-04-03T15:11:42;4.41;;;2.21;;
50651;SDS011;66928;52.086;5.240;2023-04-03T15:13:18;3.3;;;2.0;;
50651;SDS011;66928;52.086;5.240;2023-04-03T15:14:55;2.4;;;1.7;;
50651;SDS011;66928;52.086;5.240;2023-04-03T15:18:10;3.8;;;1.8;;
50651;SDS011;66928;52.086;5.240;2023-04-03T15:19:51;3.3;;;1.9;;
50651;SDS011;66928;52.086;5.240;2023-04-03T15:21:27;3.2;;;1.8;;
50651;SDS011;66928;52.086;5.240;2023-04-03T15:23:03;2.5;;;1.9;;
50651;SDS011;66928;52.086;5.240;2023-04-03T15:26:16;3.5;;;1.9;;
50651;SDS011;66928;52.086;5.240;2023-04-03T15:27:52;4.1;;;1.9;;
50651;SDS011;66928;52.086;5.240;2023-04-03T15:29:30;3.3;;;2.0;;
50651;SDS011;66928;52.086;5.240;2023-04-03T15:32:43;3.2;;;1.9;;
50651;SDS011;66928;52.086;5.240;2023-04-03T15:34:19;3.2;;;2.0;;
50651;SDS011;66928;52.086;5.240;2023-04-03T15:35:55;3.3;;;2.0;;
50651;SDS011;66928;52.086;5.240;2023-04-03T15:37:31;3.2;;;2.1;;
50651;SDS011;66928;52.086;5.240;2023-04-03T15:40:43;3.8;;;1.9;;
50651;SDS011;66928;52.086;5.240;2023-04-03T15:42:20;2.4;;;2.0;;
50651;SDS011;66928;52.086;5.240;2023-04-03T15:43:56;3.2;;;2.1;;
50651;SDS011;66928;52.086;5.240;2023-04-03T15:47:11;3.1;;;2.1;;
50651;SDS011;66928;52.086;5.240;2023-04-03T15:48:48;4.41;;;2.1;;
50651;SDS011;66928;52.086;5.240;2023-04-03T15:50:24;2.6;;;2.0;;
50651;SDS011;66928;52.086;5.240;2023-04-03T15:53:39;3.6;;;1.9;;
50651;SDS011;66928;52.086;5.240;2023-04-03T15:55:15;3.8;;;1.9;;
50651;SDS011;66928;52.086;5.240;2023-04-03T15:56:51;3.8;;;1.9;;
50651;SDS011;66928;52.086;5.240;2023-04-03T15:58:28;2.6;;;2.0;;
50651;SDS011;66928;52.086;5.240;2023-04-03T16:01:43;4.1;;;2.21;;
50651;SDS011;66928;52.086;5.240;2023-04-03T16:03:20;3.3;;;2.0;;
50651;SDS011;66928;52.086;5.240;2023-04-03T16:04:57;3.7;;;1.9;;
50651;SDS011;66928;52.086;5.240;2023-04-03T16:08:09;2.7;;;1.9;;
50651;SDS011;66928;52.086;5.240;2023-04-03T16:09:45;3.7;;;1.9;;
50651;SDS011;66928;52.086;5.240;2023-04-03T16:11:21;4.7;;;1.9;;
50651;SDS011;66928;52.086;5.240;2023-04-03T16:14:34;3.0;;;2.0;;
50651;SDS011;66928;52.086;5.240;2023-04-03T16:16:10;4.61;;;2.1;;
50651;SDS011;66928;52.086;5.240;2023-04-03T16:17:47;4.3;;;2.0;;
50651;SDS011;66928;52.086;5.240;2023-04-03T16:19:23;3.3;;;1.8;;
50651;SDS011;66928;52.086;5.240;2023-04-03T16:22:36;3.3;;;2.21;;
50651;SDS011;66928;52.086;5.240;2023-04-03T16:24:13;5.5;;;2.31;;
50651;SDS011;66928;52.086;5.240;2023-04-03T16:25:50;2.9;;;2.0;;
50651;SDS011;66928;52.086;5.240;2023-04-03T16:29:03;2.7;;;2.0;;
50651;SDS011;66928;52.086;5.240;2023-04-03T16:30:39;3.4;;;1.9;;
50651;SDS011;66928;52.086;5.240;2023-04-03T16:32:16;4.3;;;2.0;;
50651;SDS011;66928;52.086;5.240;2023-04-03T16:35:30;3.6;;;2.21;;
50651;SDS011;66928;52.086;5.240;2023-04-03T16:37:07;3.3;;;1.8;;
50651;SDS011;66928;52.086;5.240;2023-04-03T16:38:43;3.9;;;2.0;;
50651;SDS011;66928;52.086;5.240;2023-04-03T16:43:31;4.0;;;2.31;;
50651;SDS011;66928;52.086;5.240;2023-04-03T16:45:08;3.9;;;2.6;;
50651;SDS011;66928;52.086;5.240;2023-04-03T16:46:46;5.8;;;2.6;;
50651;SDS011;66928;52.086;5.240;2023-04-03T16:49:58;4.41;;;2.21;;
50651;SDS011;66928;52.086;5.240;2023-04-03T16:51:34;3.8;;;2.1;;
50651;SDS011;66928;52.086;5.240;2023-04-03T16:53:10;4.5;;;2.1;;
50651;SDS011;66928;52.086;5.240;2023-04-03T16:57:59;3.7;;;2.1;;
50651;SDS011;66928;52.086;5.240;2023-04-03T16:59:36;3.5;;;2.31;;
50651;SDS011;66928;52.086;5.240;2023-04-03T17:01:12;4.1;;;2.5;;
50651;SDS011;66928;52.086;5.240;2023-04-03T17:04:27;4.3;;;2.5;;
50651;SDS011;66928;52.086;5.240;2023-04-03T17:06:03;4.2;;;2.4;;
50651;SDS011;66928;52.086;5.240;2023-04-03T17:07:39;3.0;;;2.21;;
50651;SDS011;66928;52.086;5.240;2023-04-03T17:10:51;4.61;;;2.31;;
50651;SDS011;66928;52.086;5.240;2023-04-03T17:12:27;4.5;;;2.31;;
50651;SDS011;66928;52.086;5.240;2023-04-03T17:14:03;4.61;;;2.21;;
50651;SDS011;66928;52.086;5.240;2023-04-03T17:17:16;4.61;;;1.9;;
50651;SDS011;66928;52.086;5.240;2023-04-03T17:18:55;3.9;;;2.31;;
50651;SDS011;66928;52.086;5.240;2023-04-03T17:20:32;3.8;;;2.1;;
50651;SDS011;66928;52.086;5.240;2023-04-03T17:22:08;3.4;;;2.21;;
50651;SDS011;66928;52.086;5.240;2023-04-03T17:25:26;4.5;;;2.21;;
50651;SDS011;66928;52.086;5.240;2023-04-03T17:27:02;3.6;;;2.1;;
50651;SDS011;66928;52.086;5.240;2023-04-03T17:28:40;4.3;;;2.21;;
50651;SDS011;66928;52.086;5.240;2023-04-03T17:31:52;2.21;;;1.9;;
50651;SDS011;66928;52.086;5.240;2023-04-03T17:33:28;3.2;;;2.21;;
50651;SDS011;66928;52.086;5.240;2023-04-03T17:35:05;4.8;;;2.0;;
50651;SDS011;66928;52.086;5.240;2023-04-03T17:36:41;3.1;;;1.9;;
50651;SDS011;66928;52.086;5.240;2023-04-03T17:39:54;3.8;;;2.1;;
50651;SDS011;66928;52.086;5.240;2023-04-03T17:41:30;3.3;;;2.1;;
50651;SDS011;66928;52.086;5.240;2023-04-03T17:43:07;3.4;;;2.21;;
50651;SDS011;66928;52.086;5.240;2023-04-03T17:46:18;3.6;;;2.0;;
50651;SDS011;66928;52.086;5.240;2023-04-03T17:47:55;4.5;;;2.31;;
50651;SDS011;66928;52.086;5.240;2023-04-03T17:49:30;4.3;;;2.1;;
50651;SDS011;66928;52.086;5.240;2023-04-03T17:52:45;3.8;;;2.0;;
50651;SDS011;66928;52.086;5.240;2023-04-03T17:54:21;3.1;;;2.21;;
50651;SDS011;66928;52.086;5.240;2023-04-03T17:55:57;3.4;;;2.21;;
50651;SDS011;66928;52.086;5.240;2023-04-03T17:59:10;3.5;;;1.8;;
50651;SDS011;66928;52.086;5.240;2023-04-03T18:00:46;3.5;;;2.21;;
50651;SDS011;66928;52.086;5.240;2023-04-03T18:02:22;4.0;;;2.1;;
50651;SDS011;66928;52.086;5.240;2023-04-03T18:03:59;4.1;;;1.8;;
50651;SDS011;66928;52.086;5.240;2023-04-03T18:07:14;3.5;;;2.1;;
50651;SDS011;66928;52.086;5.240;2023-04-03T18:08:51;3.7;;;2.1;;
50651;SDS011;66928;52.086;5.240;2023-04-03T18:10:30;3.9;;;2.0;;
50651;SDS011;66928;52.086;5.240;2023-04-03T18:13:44;3.3;;;2.0;;
50651;SDS011;66928;52.086;5.240;2023-04-03T18:15:22;3.6;;;2.1;;
50651;SDS011;66928;52.086;5.240;2023-04-03T18:16:59;5.11;;;2.1;;
50651;SDS011;66928;52.086;5.240;2023-04-03T18:18:35;4.91;;;2.21;;
50651;SDS011;66928;52.086;5.240;2023-04-03T18:21:48;4.5;;;2.21;;
50651;SDS011;66928;52.086;5.240;2023-04-03T18:23:26;4.5;;;2.21;;
50651;SDS011;66928;52.086;5.240;2023-04-03T18:25:05;3.3;;;1.8;;
50651;SDS011;66928;52.086;5.240;2023-04-03T18:28:26;4.41;;;2.1;;
50651;SDS011;66928;52.086;5.240;2023-04-03T18:30:06;2.8;;;2.1;;
50651;SDS011;66928;52.086;5.240;2023-04-03T18:31:46;3.2;;;2.21;;
50651;SDS011;66928;52.086;5.240;2023-04-03T18:33:30;3.2;;;2.0;;
50651;SDS011;66928;52.086;5.240;2023-04-03T18:36:44;3.6;;;2.21;;
50651;SDS011;66928;52.086;5.240;2023-04-03T18:38:20;3.0;;;2.31;;
50651;SDS011;66928;52.086;5.240;2023-04-03T18:39:55;4.8;;;2.6;;
50651;SDS011;66928;52.086;5.240;2023-04-03T18:43:11;4.41;;;2.5;;
50651;SDS011;66928;52.086;5.240;2023-04-03T18:44:49;4.0;;;2.5;;